createdAt,value
2023-04-02T00:00:28.033Z,7568.00
2023-04-02T00:01:28.055Z,7466.00
2023-04-02T00:02:28.250Z,7364.00
2023-04-02T00:03:28.222Z,7450.00
2023-04-02T00:04:28.292Z,7482.00
2023-04-02T00:05:28.294Z,7420.00
2023-04-02T00:06:28.404Z,7255.00
2023-04-02T00:07:28.452Z,7156.00
2023-04-02T00:08:28.519Z,7173.00
2023-04-02T00:09:28.567Z,7095.00
2023-04-02T00:10:28.637Z,7100.00
2023-04-02T00:11:28.706Z,6948.00
2023-04-02T00:12:28.781Z,6877.00
2023-04-02T00:13:28.808Z,6857.00
2023-04-02T00:14:28.844Z,6893.00
2023-04-02T00:15:28.984Z,6879.00
2023-04-02T00:16:29.073Z,6690.00
2023-04-02T00:17:29.087Z,6601.00
2023-04-02T00:18:29.172Z,6463.00
2023-04-02T00:19:29.212Z,6264.00
2023-04-02T00:20:29.285Z,6411.00
2023-04-02T00:21:29.334Z,6368.00
2023-04-02T00:22:29.386Z,6345.00
2023-04-02T00:23:29.449Z,6324.00
2023-04-02T00:24:29.506Z,6484.00
2023-04-02T00:25:29.561Z,6715.00
2023-04-02T00:26:29.592Z,6695.00
2023-04-02T00:27:29.670Z,6544.00
2023-04-02T00:28:29.709Z,6435.00
2023-04-02T00:29:29.724Z,6592.00
2023-04-02T00:30:29.808Z,7068.00
2023-04-02T00:31:29.839Z,7386.00
2023-04-02T00:32:29.925Z,7554.00
2023-04-02T00:33:29.941Z,7647.00
2023-04-02T00:34:29.982Z,7569.00
2023-04-02T00:35:30.022Z,7646.00
2023-04-02T00:36:30.158Z,7667.00
2023-04-02T00:37:30.171Z,7912.00
2023-04-02T00:38:30.214Z,7941.00
2023-04-02T00:39:30.260Z,7905.00
2023-04-02T00:40:30.385Z,7740.00
2023-04-02T00:41:30.433Z,7327.00
2023-04-02T00:42:30.523Z,7032.00
2023-04-02T00:43:30.569Z,6855.00
2023-04-02T00:44:30.544Z,6651.00
2023-04-02T00:45:30.564Z,6561.00
2023-04-02T00:46:30.677Z,6615.00
2023-04-02T00:47:30.651Z,6475.00
2023-04-02T00:48:30.663Z,6393.00
2023-04-02T00:49:30.745Z,6074.00
2023-04-02T00:50:30.737Z,5983.00
2023-04-02T00:51:30.807Z,5885.00
2023-04-02T00:52:30.802Z,5847.00
2023-04-02T00:53:30.827Z,5790.00
2023-04-02T00:54:30.831Z,5764.00
2023-04-02T00:55:30.827Z,5767.00
2023-04-02T00:56:30.914Z,5849.00
2023-04-02T00:57:31.544Z,5829.00
2023-04-02T00:58:31.072Z,5704.00
2023-04-02T00:59:31.078Z,5615.00
2023-04-02T01:00:31.122Z,5582.00
2023-04-02T01:01:31.184Z,5602.00
2023-04-02T01:02:31.322Z,5625.00
2023-04-02T01:03:31.322Z,5646.00
2023-04-02T01:04:31.249Z,5488.00
2023-04-02T01:05:31.298Z,5469.00
2023-04-02T01:06:31.408Z,5540.00
2023-04-02T01:07:31.430Z,5599.00
2023-04-02T01:08:31.415Z,5623.00
2023-04-02T01:09:31.421Z,5621.00
2023-04-02T01:10:31.437Z,5784.00
2023-04-02T01:11:31.448Z,6029.00
2023-04-02T01:12:31.445Z,6023.00
2023-04-02T01:13:31.453Z,5907.00
2023-04-02T01:14:31.424Z,6179.00
2023-04-02T01:15:31.520Z,6571.00
2023-04-02T01:16:31.524Z,6672.00
2023-04-02T01:17:31.584Z,6704.00
2023-04-02T01:18:31.543Z,6818.00
2023-04-02T01:19:31.520Z,6634.00
2023-04-02T01:20:31.501Z,6363.00
2023-04-02T01:21:31.483Z,6081.00
2023-04-02T01:22:31.537Z,5685.00
2023-04-02T01:23:31.574Z,5507.00
2023-04-02T01:24:31.654Z,5631.00
2023-04-02T01:25:32.000Z,5545.00
2023-04-02T01:26:31.741Z,5476.00
2023-04-02T01:27:31.800Z,5542.00
2023-04-02T01:28:31.864Z,6221.00
2023-04-02T01:29:31.935Z,6799.00
2023-04-02T01:30:32.049Z,7148.00
2023-04-02T01:31:32.174Z,7475.00
2023-04-02T01:32:32.227Z,7708.00
2023-04-02T01:33:32.197Z,7682.00
2023-04-02T01:34:32.289Z,6987.00
2023-04-02T01:35:32.274Z,6439.00
2023-04-02T01:36:32.313Z,6320.00
2023-04-02T01:37:32.474Z,6411.00
2023-04-02T01:38:32.437Z,6735.00
2023-04-02T01:39:32.450Z,6999.00
2023-04-02T01:40:32.448Z,7059.00
2023-04-02T01:41:32.457Z,6922.00
2023-04-02T01:42:32.452Z,6407.00
2023-04-02T01:43:32.492Z,6089.00
2023-04-02T01:44:32.481Z,5818.00
2023-04-02T01:45:32.839Z,5611.00
2023-04-02T01:46:32.630Z,5556.00
2023-04-02T01:47:32.719Z,5815.00
2023-04-02T01:48:32.760Z,5989.00
2023-04-02T01:49:32.779Z,6115.00
2023-04-02T01:50:32.766Z,6167.00
2023-04-02T01:51:32.817Z,5972.00
2023-04-02T01:52:32.848Z,5704.00
2023-04-02T01:53:32.836Z,5481.00
2023-04-02T01:54:32.871Z,5364.00
2023-04-02T01:55:33.117Z,5222.00
2023-04-02T01:56:32.853Z,5273.00
2023-04-02T01:57:32.988Z,5286.00
2023-04-02T01:58:32.889Z,5199.00
2023-04-02T01:59:32.911Z,5256.00
2023-04-02T02:00:33.800Z,5273.00
2023-04-02T02:01:32.890Z,5213.00
2023-04-02T02:02:32.970Z,5256.00
2023-04-02T02:03:32.925Z,5253.00
2023-04-02T02:04:32.906Z,5255.00
2023-04-02T02:05:33.149Z,5360.00
2023-04-02T02:06:32.913Z,5320.00
2023-04-02T02:07:32.979Z,5289.00
2023-04-02T02:08:32.969Z,5345.00
2023-04-02T02:09:32.979Z,5237.00
2023-04-02T02:10:32.968Z,5208.00
2023-04-02T02:11:33.082Z,5312.00
2023-04-02T02:12:33.067Z,5320.00
2023-04-02T02:13:33.049Z,5272.00
2023-04-02T02:14:33.029Z,5435.00
2023-04-02T02:15:33.264Z,5961.00
2023-04-02T02:16:33.065Z,6826.00
2023-04-02T02:17:33.145Z,7097.00
2023-04-02T02:18:33.088Z,7222.00
2023-04-02T02:19:33.081Z,7242.00
2023-04-02T02:20:33.103Z,7174.00
2023-04-02T02:21:33.084Z,7220.00
2023-04-02T02:22:33.104Z,7210.00
2023-04-02T02:23:33.086Z,7274.00
2023-04-02T02:24:33.170Z,7301.00
2023-04-02T02:25:33.544Z,7311.00
2023-04-02T02:26:33.195Z,7275.00
2023-04-02T02:27:33.182Z,7299.00
2023-04-02T02:28:33.187Z,7319.00
2023-04-02T02:29:33.194Z,7217.00
2023-04-02T02:30:33.273Z,7225.00
2023-04-02T02:31:33.365Z,7258.00
2023-04-02T02:32:33.412Z,7259.00
2023-04-02T02:33:33.362Z,7145.00
2023-04-02T02:34:33.376Z,7033.00
2023-04-02T02:35:33.836Z,6945.00
2023-04-02T02:36:33.440Z,6907.00
2023-04-02T02:37:33.377Z,6982.00
2023-04-02T02:38:33.451Z,7009.00
2023-04-02T02:39:33.361Z,7111.00
2023-04-02T02:40:33.372Z,7195.00
2023-04-02T02:41:33.393Z,7227.00
2023-04-02T02:42:33.412Z,7203.00
2023-04-02T02:43:33.393Z,7216.00
2023-04-02T02:44:33.397Z,7180.00
2023-04-02T02:45:33.574Z,7173.00
2023-04-02T02:46:33.406Z,7155.00
2023-04-02T02:47:33.446Z,7193.00
2023-04-02T02:48:33.372Z,7032.00
2023-04-02T02:49:33.437Z,7001.00
2023-04-02T02:50:33.420Z,6909.00
2023-04-02T02:51:33.433Z,6800.00
2023-04-02T02:52:33.468Z,6782.00
2023-04-02T02:53:33.496Z,6723.00
2023-04-02T02:54:33.513Z,6646.00
2023-04-02T02:55:33.804Z,6719.00
2023-04-02T02:56:33.575Z,6736.00
2023-04-02T02:57:33.675Z,6745.00
2023-04-02T02:58:33.596Z,6758.00
2023-04-02T02:59:33.622Z,6806.00
2023-04-02T03:00:33.670Z,6863.00
2023-04-02T03:01:33.695Z,6860.00
2023-04-02T03:02:33.814Z,6901.00
2023-04-02T03:03:33.770Z,6876.00
2023-04-02T03:04:33.774Z,6867.00
2023-04-02T03:05:34.103Z,6839.00
2023-04-02T03:06:33.871Z,6732.00
2023-04-02T03:07:33.872Z,6696.00
2023-04-02T03:08:33.927Z,7001.00
2023-04-02T03:09:33.983Z,7057.00
2023-04-02T03:10:33.982Z,7108.00
2023-04-02T03:11:34.001Z,7137.00
2023-04-02T03:12:34.087Z,7125.00
2023-04-02T03:13:34.097Z,7049.00
2023-04-02T03:14:34.133Z,7058.00
2023-04-02T03:15:34.332Z,7107.00
2023-04-02T03:16:34.137Z,7071.00
2023-04-02T03:17:34.193Z,7025.00
2023-04-02T03:18:34.137Z,7025.00
2023-04-02T03:19:34.152Z,6991.00
2023-04-02T03:20:34.184Z,6904.00
2023-04-02T03:21:34.215Z,6975.00
2023-04-02T03:22:34.268Z,6961.00
2023-04-02T03:23:34.271Z,6881.00
2023-04-02T03:24:34.296Z,6621.00
2023-04-02T03:25:34.529Z,6423.00
2023-04-02T03:26:34.401Z,6397.00
2023-04-02T03:27:34.422Z,6423.00
2023-04-02T03:28:34.464Z,6486.00
2023-04-02T03:29:34.492Z,6702.00
2023-04-02T03:30:34.532Z,6826.00
2023-04-02T03:31:34.636Z,6889.00
2023-04-02T03:32:34.728Z,6879.00
2023-04-02T03:33:34.655Z,6914.00
2023-04-02T03:34:34.729Z,6955.00
2023-04-02T03:35:35.001Z,7003.00
2023-04-02T03:36:34.784Z,7000.00
2023-04-02T03:37:34.850Z,6971.00
2023-04-02T03:38:34.868Z,6985.00
2023-04-02T03:39:34.905Z,6992.00
2023-04-02T03:40:34.933Z,6935.00
2023-04-02T03:41:34.986Z,7055.00
2023-04-02T03:42:35.064Z,7263.00
2023-04-02T03:43:35.045Z,7361.00
2023-04-02T03:44:35.075Z,7400.00
2023-04-02T03:45:35.231Z,7389.00
2023-04-02T03:46:35.227Z,7358.00
2023-04-02T03:47:35.292Z,7444.00
2023-04-02T03:48:35.249Z,7495.00
2023-04-02T03:49:35.311Z,7506.00
2023-04-02T03:50:35.387Z,7507.00
2023-04-02T03:51:35.444Z,7433.00
2023-04-02T03:52:35.511Z,7403.00
2023-04-02T03:53:35.555Z,7343.00
2023-04-02T03:54:35.602Z,7273.00
2023-04-02T03:55:35.822Z,7144.00
2023-04-02T03:56:35.738Z,6981.00
2023-04-02T03:57:35.758Z,7016.00
2023-04-02T03:58:35.802Z,7087.00
2023-04-02T03:59:35.845Z,7074.00
2023-04-02T04:00:35.879Z,7090.00
2023-04-02T04:01:36.017Z,7151.00
2023-04-02T04:02:36.078Z,7184.00
2023-04-02T04:03:36.019Z,7166.00
2023-04-02T04:04:36.073Z,7113.00
2023-04-02T04:05:36.487Z,6970.00
2023-04-02T04:06:36.165Z,6872.00
2023-04-02T04:07:36.186Z,7113.00
2023-04-02T04:08:36.173Z,7333.00
2023-04-02T04:09:36.216Z,7406.00
2023-04-02T04:10:36.259Z,7459.00
2023-04-02T04:11:36.257Z,7550.00
2023-04-02T04:12:36.295Z,7550.00
2023-04-02T04:13:36.251Z,7516.00
2023-04-02T04:14:36.275Z,7518.00
2023-04-02T04:15:36.484Z,7502.00
2023-04-02T04:16:36.411Z,7519.00
2023-04-02T04:17:36.296Z,7413.00
2023-04-02T04:18:36.254Z,7422.00
2023-04-02T04:19:36.295Z,7474.00
2023-04-02T04:20:36.290Z,7445.00
2023-04-02T04:21:36.322Z,7442.00
2023-04-02T04:22:36.337Z,7500.00
2023-04-02T04:23:36.362Z,7551.00
2023-04-02T04:24:36.381Z,7557.00
2023-04-02T04:25:36.614Z,7555.00
2023-04-02T04:26:36.547Z,7552.00
2023-04-02T04:27:36.480Z,7555.00
2023-04-02T04:28:36.528Z,7538.00
2023-04-02T04:29:36.538Z,7496.00
2023-04-02T04:30:36.539Z,7455.00
2023-04-02T04:31:36.637Z,7401.00
2023-04-02T04:32:36.605Z,7405.00
2023-04-02T04:33:36.564Z,7430.00
2023-04-02T04:34:36.551Z,7443.00
2023-04-02T04:35:36.845Z,7423.00
2023-04-02T04:36:36.603Z,7397.00
2023-04-02T04:37:36.639Z,7307.00
2023-04-02T04:38:36.641Z,7211.00
2023-04-02T04:39:36.666Z,7183.00
2023-04-02T04:40:36.722Z,7154.00
2023-04-02T04:41:36.724Z,7136.00
2023-04-02T04:42:36.763Z,7145.00
2023-04-02T04:43:36.815Z,7154.00
2023-04-02T04:44:36.770Z,7185.00
2023-04-02T04:45:36.957Z,7222.00
2023-04-02T04:46:36.815Z,7253.00
2023-04-02T04:47:36.811Z,7287.00
2023-04-02T04:48:36.810Z,7297.00
2023-04-02T04:49:36.897Z,7309.00
2023-04-02T04:50:36.888Z,7313.00
2023-04-02T04:51:36.931Z,7297.00
2023-04-02T04:52:36.958Z,7234.00
2023-04-02T04:53:36.979Z,7215.00
2023-04-02T04:54:36.971Z,7199.00
2023-04-02T04:55:37.256Z,7239.00
2023-04-02T04:56:37.047Z,7213.00
2023-04-02T04:57:37.147Z,7194.00
2023-04-02T04:58:37.101Z,7176.00
2023-04-02T04:59:37.102Z,7157.00
2023-04-02T05:00:37.158Z,7060.00
2023-04-02T05:01:37.206Z,7041.00
2023-04-02T05:02:37.276Z,7021.00
2023-04-02T05:03:37.250Z,6966.00
2023-04-02T05:04:37.437Z,6913.00
2023-04-02T05:05:37.370Z,6899.00
2023-04-02T05:06:37.365Z,6854.00
2023-04-02T05:07:37.426Z,6813.00
2023-04-02T05:08:37.440Z,6795.00
2023-04-02T05:09:37.492Z,6813.00
2023-04-02T05:10:37.517Z,6819.00
2023-04-02T05:11:37.550Z,6819.00
2023-04-02T05:12:37.621Z,6794.00
2023-04-02T05:13:37.658Z,6789.00
2023-04-02T05:14:37.700Z,6774.00
2023-04-02T05:15:37.884Z,6756.00
2023-04-02T05:16:37.808Z,6740.00
2023-04-02T05:17:37.820Z,6694.00
2023-04-02T05:18:37.813Z,6666.00
2023-04-02T05:19:37.845Z,6701.00
2023-04-02T05:20:37.920Z,6707.00
2023-04-02T05:21:37.958Z,6689.00
2023-04-02T05:22:39.490Z,6675.00
2023-04-02T05:23:38.002Z,6628.00
2023-04-02T05:24:37.983Z,6568.00
2023-04-02T05:25:38.158Z,6601.00
2023-04-02T05:26:37.932Z,6700.00
2023-04-02T05:27:37.969Z,6766.00
2023-04-02T05:28:37.978Z,6814.00
2023-04-02T05:29:37.942Z,6884.00
2023-04-02T05:30:37.947Z,6962.00
2023-04-02T05:31:38.005Z,6992.00
2023-04-02T05:32:37.979Z,6977.00
2023-04-02T05:33:37.905Z,6958.00
2023-04-02T05:34:37.930Z,6861.00
2023-04-02T05:35:38.314Z,6838.00
2023-04-02T05:36:37.941Z,6707.00
2023-04-02T05:37:37.891Z,6705.00
2023-04-02T05:38:37.900Z,6642.00
2023-04-02T05:39:37.856Z,6539.00
2023-04-02T05:40:37.865Z,6492.00
2023-04-02T05:41:37.889Z,6474.00
2023-04-02T05:42:37.927Z,6420.00
2023-04-02T05:43:37.893Z,6417.00
2023-04-02T05:44:39.211Z,6407.00
2023-04-02T05:45:38.019Z,6436.00
2023-04-02T05:46:37.896Z,6487.00
2023-04-02T05:47:37.890Z,6523.00
2023-04-02T05:48:37.822Z,6541.00
2023-04-02T05:49:37.822Z,6558.00
2023-04-02T05:50:37.888Z,6587.00
2023-04-02T05:51:37.808Z,6579.00
2023-04-02T05:52:37.801Z,6570.00
2023-04-02T05:53:37.823Z,6621.00
2023-04-02T05:54:37.806Z,6651.00
2023-04-02T05:55:37.770Z,6673.00
2023-04-02T05:56:37.780Z,6646.00
2023-04-02T05:58:37.886Z,6512.00
2023-04-02T05:59:37.732Z,6458.00
2023-04-02T06:00:37.757Z,6416.00
2023-04-02T06:01:37.772Z,6351.00
2023-04-02T06:02:37.873Z,6351.00
2023-04-02T06:03:37.815Z,6397.00
2023-04-02T06:04:37.745Z,6442.00
2023-04-02T06:05:37.839Z,6470.00
2023-04-02T06:06:37.708Z,6493.00
2023-04-02T06:07:37.675Z,6510.00
2023-04-02T06:08:37.691Z,6514.00
2023-04-02T06:09:37.706Z,6500.00
2023-04-02T06:10:37.651Z,6468.00
2023-04-02T06:11:37.674Z,6419.00
2023-04-02T06:12:37.669Z,6366.00
2023-04-02T06:13:37.693Z,6276.00
2023-04-02T06:14:37.634Z,6205.00
2023-04-02T06:15:38.394Z,6246.00
2023-04-02T06:16:37.695Z,6203.00
2023-04-02T06:17:37.717Z,6249.00
2023-04-02T06:18:37.612Z,6260.00
2023-04-02T06:19:37.609Z,6187.00
2023-04-02T06:20:37.611Z,6184.00
2023-04-02T06:21:37.593Z,6184.00
2023-04-02T06:22:37.585Z,6204.00
2023-04-02T06:23:37.613Z,6196.00
2023-04-02T06:24:37.586Z,6183.00
2023-04-02T06:25:37.934Z,6179.00
2023-04-02T06:26:37.562Z,6199.00
2023-04-02T06:27:37.543Z,6101.00
2023-04-02T06:28:37.580Z,6220.00
2023-04-02T06:29:37.533Z,6167.00
2023-04-02T06:30:37.544Z,6152.00
2023-04-02T06:31:37.483Z,6205.00
2023-04-02T06:32:37.514Z,6103.00
2023-04-02T06:33:37.511Z,5728.00
2023-04-02T06:34:37.511Z,5762.00
2023-04-02T06:35:37.735Z,5741.00
2023-04-02T06:36:37.476Z,5846.00
2023-04-02T06:37:37.452Z,5744.00
2023-04-02T06:38:37.454Z,5773.00
2023-04-02T06:39:37.450Z,5673.00
2023-04-02T06:40:37.472Z,5522.00
2023-04-02T06:41:37.450Z,5230.00
2023-04-02T06:42:37.419Z,5075.00
2023-04-02T06:43:37.430Z,5088.00
2023-04-02T06:44:37.460Z,5191.00
2023-04-02T06:45:37.449Z,5368.00
2023-04-02T06:46:37.627Z,5390.00
2023-04-02T06:47:37.402Z,5294.00
2023-04-02T06:48:37.455Z,5093.00
2023-04-02T06:49:37.445Z,4992.00
2023-04-02T06:50:37.420Z,5040.00
2023-04-02T06:51:37.444Z,5132.00
2023-04-02T06:52:37.436Z,5193.00
2023-04-02T06:53:37.525Z,5001.00
2023-04-02T06:54:37.612Z,4771.00
2023-04-02T06:55:37.984Z,4738.00
2023-04-02T06:56:37.657Z,4569.00
2023-04-02T06:57:37.699Z,4492.00
2023-04-02T06:58:37.742Z,4407.00
2023-04-02T06:59:37.689Z,4433.00
2023-04-02T07:00:37.684Z,4546.00
2023-04-02T07:01:37.786Z,4514.00
2023-04-02T07:02:37.798Z,4343.00
2023-04-02T07:03:37.812Z,4341.00
2023-04-02T07:04:37.869Z,4443.00
2023-04-02T07:05:38.883Z,4327.00
2023-04-02T07:06:38.033Z,4521.00
2023-04-02T07:07:38.109Z,4494.00
2023-04-02T07:08:38.139Z,4196.00
2023-04-02T07:09:38.152Z,4013.00
2023-04-02T07:10:38.168Z,4100.00
2023-04-02T07:11:38.174Z,4107.00
2023-04-02T07:12:38.170Z,4094.00
2023-04-02T07:13:38.186Z,4108.00
2023-04-02T07:14:38.433Z,3834.00
2023-04-02T07:15:38.288Z,3723.00
2023-04-02T07:16:38.250Z,3786.00
2023-04-02T07:17:38.248Z,3580.00
2023-04-02T07:18:38.264Z,3711.00
2023-04-02T07:19:38.299Z,3862.00
2023-04-02T07:20:38.234Z,3583.00
2023-04-02T07:21:38.337Z,3260.00
2023-04-02T07:22:38.339Z,3070.00
2023-04-02T07:23:38.455Z,2566.00
2023-04-02T07:24:38.472Z,2479.00
2023-04-02T07:25:38.525Z,2672.00
2023-04-02T07:26:38.615Z,2821.00
2023-04-02T07:27:38.665Z,2879.00
2023-04-02T07:28:38.769Z,3101.00
2023-04-02T07:29:38.814Z,3133.00
2023-04-02T07:30:38.871Z,3002.00
2023-04-02T07:31:38.908Z,2882.00
2023-04-02T07:32:39.007Z,2700.00
2023-04-02T07:33:40.637Z,2866.00
2023-04-02T07:34:38.908Z,2962.00
2023-04-02T07:35:38.938Z,2484.00
2023-04-02T07:36:38.898Z,2573.00
2023-04-02T07:37:38.877Z,2529.00
2023-04-02T07:38:38.929Z,2570.00
2023-04-02T07:39:40.243Z,2182.00
2023-04-02T07:40:38.877Z,2130.00
2023-04-02T07:41:38.864Z,2187.00
2023-04-02T07:42:38.831Z,2214.00
2023-04-02T07:43:38.836Z,2360.00
2023-04-02T07:44:38.974Z,2493.00
2023-04-02T07:45:38.853Z,2206.00
2023-04-02T07:46:38.855Z,2191.00
2023-04-02T07:47:38.858Z,2036.00
2023-04-02T07:48:38.828Z,2055.00
2023-04-02T07:49:38.764Z,2329.00
2023-04-02T07:50:38.814Z,2598.00
2023-04-02T07:51:38.785Z,2608.00
2023-04-02T07:52:40.356Z,2642.00
2023-04-02T07:53:38.829Z,2526.00
2023-04-02T07:54:38.901Z,2357.00
2023-04-02T07:55:38.915Z,2663.00
2023-04-02T07:56:38.897Z,2834.00
2023-04-02T07:57:39.035Z,2853.00
2023-04-02T07:58:39.106Z,2525.00
2023-04-02T07:59:39.266Z,2352.00
2023-04-02T08:00:39.256Z,2284.00
2023-04-02T08:01:39.275Z,1994.00
2023-04-02T08:02:39.301Z,1488.00
2023-04-02T08:03:39.346Z,1558.00
2023-04-02T08:04:39.352Z,1583.00
2023-04-02T08:05:39.358Z,1069.00
2023-04-02T08:06:39.422Z,717.00
2023-04-02T08:07:39.417Z,588.00
2023-04-02T08:08:39.463Z,547.00
2023-04-02T08:09:39.481Z,513.00
2023-04-02T08:10:39.532Z,500.00
2023-04-02T08:11:39.517Z,485.00
2023-04-02T08:12:39.565Z,478.00
2023-04-02T08:13:39.626Z,500.00
2023-04-02T08:14:39.631Z,475.00
2023-04-02T08:15:39.645Z,500.00
2023-04-02T08:16:39.719Z,499.00
2023-04-02T08:17:39.727Z,627.00
2023-04-02T08:18:39.769Z,574.00
2023-04-02T08:19:53.804Z,481.00
2023-04-02T08:20:40.754Z,452.00
2023-04-02T08:21:39.730Z,484.00
2023-04-02T08:22:39.753Z,528.00
2023-04-02T08:23:39.743Z,659.00
2023-04-02T08:24:39.765Z,953.00
2023-04-02T08:25:39.693Z,1345.00
2023-04-02T08:26:39.738Z,1473.00
2023-04-02T08:27:39.731Z,1250.00
2023-04-02T08:28:39.696Z,1098.00
2023-04-02T08:29:39.703Z,917.00
2023-04-02T08:30:39.719Z,568.00
2023-04-02T08:31:39.691Z,494.00
2023-04-02T08:32:39.666Z,591.00
2023-04-02T08:33:39.701Z,485.00
2023-04-02T08:34:39.661Z,511.00
2023-04-02T08:35:39.908Z,498.00
2023-04-02T08:36:39.688Z,527.00
2023-04-02T08:37:39.746Z,560.00
2023-04-02T08:38:39.740Z,673.00
2023-04-02T08:39:39.852Z,502.00
2023-04-02T08:40:40.642Z,540.00
2023-04-02T08:41:39.931Z,786.00
2023-04-02T08:42:39.933Z,1041.00
2023-04-02T08:43:39.982Z,1211.00
2023-04-02T08:44:40.936Z,1202.00
2023-04-02T08:45:40.240Z,1154.00
2023-04-02T08:46:40.083Z,815.00
2023-04-02T08:47:40.166Z,717.00
2023-04-02T08:48:42.504Z,661.00
2023-04-02T08:49:40.305Z,815.00
2023-04-02T08:50:40.451Z,656.00
2023-04-02T08:51:40.416Z,644.00
2023-04-02T08:52:40.402Z,600.00
2023-04-02T08:53:40.478Z,617.00
2023-04-02T08:54:40.504Z,612.00
2023-04-02T08:55:40.518Z,631.00
2023-04-02T08:56:40.538Z,850.00
2023-04-02T08:57:40.545Z,632.00
2023-04-02T08:58:40.641Z,753.00
2023-04-02T08:59:40.666Z,1063.00
2023-04-02T09:00:40.706Z,1120.00
2023-04-02T09:01:40.851Z,916.00
2023-04-02T09:02:40.786Z,745.00
2023-04-02T09:03:40.824Z,1193.00
2023-04-02T09:04:40.813Z,1035.00
2023-04-02T09:05:40.843Z,861.00
2023-04-02T09:06:40.952Z,634.00
2023-04-02T09:07:40.941Z,593.00
2023-04-02T09:08:40.985Z,522.00
2023-04-02T09:09:41.008Z,532.00
2023-04-02T09:10:41.037Z,629.00
2023-04-02T09:11:41.031Z,619.00
2023-04-02T09:12:42.247Z,655.00
2023-04-02T09:13:41.160Z,562.00
2023-04-02T09:14:41.149Z,523.00
2023-04-02T09:15:41.227Z,526.00
2023-04-02T09:16:41.209Z,566.00
2023-04-02T09:17:53.017Z,485.00
2023-04-02T09:18:42.285Z,486.00
2023-04-02T09:19:41.224Z,492.00
2023-04-02T09:20:41.217Z,491.00
2023-04-02T09:21:41.251Z,524.00
2023-04-02T09:22:41.276Z,471.00
2023-04-02T09:23:41.238Z,458.00
2023-04-02T09:24:41.186Z,508.00
2023-04-02T09:25:41.369Z,492.00
2023-04-02T09:26:41.191Z,421.00
2023-04-02T09:27:41.148Z,400.00
2023-04-02T09:28:41.151Z,400.00
2023-04-02T09:29:41.166Z,453.00
2023-04-02T09:30:41.188Z,490.00
2023-04-02T09:31:41.249Z,532.00
2023-04-02T09:32:41.164Z,503.00
2023-04-02T09:33:41.169Z,659.00
2023-04-02T09:34:41.206Z,550.00
2023-04-02T09:35:41.410Z,441.00
2023-04-02T09:36:41.257Z,555.00
2023-04-02T09:37:41.318Z,524.00
2023-04-02T09:38:41.302Z,562.00
2023-04-02T09:39:41.353Z,573.00
2023-04-02T09:40:41.345Z,797.00
2023-04-02T09:41:41.410Z,802.00
2023-04-02T09:42:41.449Z,663.00
2023-04-02T09:43:41.515Z,1023.00
2023-04-02T09:44:41.543Z,1131.00
2023-04-02T09:45:41.581Z,742.00
2023-04-02T09:46:41.694Z,687.00
2023-04-02T09:47:42.294Z,509.00
2023-04-02T09:48:41.696Z,543.00
2023-04-02T09:49:41.715Z,620.00
2023-04-02T09:50:41.767Z,586.00
2023-04-02T09:51:41.800Z,624.00
2023-04-02T09:52:41.829Z,565.00
2023-04-02T09:53:42.677Z,591.00
2023-04-02T09:54:41.881Z,435.00
2023-04-02T09:55:41.877Z,515.00
2023-04-02T09:56:41.919Z,535.00
2023-04-02T09:57:41.886Z,494.00
2023-04-02T09:58:41.937Z,504.00
2023-04-02T09:59:42.009Z,532.00
2023-04-02T10:00:42.320Z,566.00
2023-04-02T10:01:42.038Z,562.00
2023-04-02T10:02:42.020Z,570.00
2023-04-02T10:03:42.013Z,586.00
2023-04-02T10:04:42.080Z,599.00
2023-04-02T10:05:42.064Z,592.00
2023-04-02T10:06:42.085Z,649.00
2023-04-02T10:07:42.080Z,624.00
2023-04-02T10:08:42.071Z,615.00
2023-04-02T10:09:42.069Z,842.00
2023-04-02T10:10:42.102Z,928.00
2023-04-02T10:11:46.656Z,994.00
2023-04-02T10:12:42.112Z,705.00
2023-04-02T10:13:42.139Z,639.00
2023-04-02T10:14:42.141Z,628.00
2023-04-02T10:15:42.090Z,492.00
2023-04-02T10:16:42.103Z,577.00
2023-04-02T10:17:42.161Z,537.00
2023-04-02T10:18:42.099Z,535.00
2023-04-02T10:19:42.062Z,469.00
2023-04-02T10:20:50.961Z,459.00
2023-04-02T10:21:43.079Z,461.00
2023-04-02T10:22:42.037Z,478.00
2023-04-02T10:23:42.037Z,510.00
2023-04-02T10:24:42.038Z,543.00
2023-04-02T10:25:42.037Z,622.00
2023-04-02T10:26:42.019Z,755.00
2023-04-02T10:27:42.990Z,662.00
2023-04-02T10:28:42.027Z,587.00
2023-04-02T10:29:41.987Z,546.00
2023-04-02T10:30:42.045Z,541.00
2023-04-02T10:31:41.999Z,672.00
2023-04-02T10:32:42.054Z,569.00
2023-04-02T10:33:42.018Z,496.00
2023-04-02T10:34:43.121Z,500.00
2023-04-02T10:35:42.093Z,453.00
2023-04-02T10:36:42.127Z,499.00
2023-04-02T10:37:42.097Z,571.00
2023-04-02T10:38:42.150Z,616.00
2023-04-02T10:39:42.165Z,623.00
2023-04-02T10:40:42.188Z,606.00
2023-04-02T10:41:42.174Z,651.00
2023-04-02T10:42:42.215Z,785.00
2023-04-02T10:43:42.268Z,864.00
2023-04-02T10:44:42.237Z,1085.00
2023-04-02T10:45:42.276Z,1135.00
2023-04-02T10:46:42.360Z,983.00
2023-04-02T10:47:42.440Z,844.00
2023-04-02T10:48:42.390Z,791.00
2023-04-02T10:49:42.498Z,962.00
2023-04-02T10:50:42.479Z,711.00
2023-04-02T10:51:42.482Z,614.00
2023-04-02T10:52:42.555Z,621.00
2023-04-02T10:53:42.561Z,705.00
2023-04-02T10:54:42.600Z,906.00
2023-04-02T10:55:42.609Z,1000.00
2023-04-02T10:56:50.570Z,1162.00
2023-04-02T10:57:43.670Z,1165.00
2023-04-02T10:58:42.652Z,1174.00
2023-04-02T10:59:42.679Z,1203.00
2023-04-02T11:00:42.617Z,1404.00
2023-04-02T11:01:42.677Z,1494.00
2023-04-02T11:02:42.723Z,1430.00
2023-04-02T11:03:42.733Z,1619.00
2023-04-02T11:04:42.637Z,1751.00
2023-04-02T11:05:42.590Z,1344.00
2023-04-02T11:06:42.586Z,1289.00
2023-04-02T11:07:42.638Z,1113.00
2023-04-02T11:08:42.617Z,1009.00
2023-04-02T11:09:42.623Z,1157.00
2023-04-02T11:10:42.615Z,1129.00
2023-04-02T11:11:42.750Z,1264.00
2023-04-02T11:12:42.751Z,1418.00
2023-04-02T11:13:42.801Z,1351.00
2023-04-02T11:14:42.874Z,1359.00
2023-04-02T11:15:42.900Z,1505.00
2023-04-02T11:16:44.493Z,1576.00
2023-04-02T11:17:42.990Z,1152.00
2023-04-02T11:18:43.002Z,1139.00
2023-04-02T11:19:42.958Z,1202.00
2023-04-02T11:20:42.944Z,1466.00
2023-04-02T11:21:55.144Z,1308.00
2023-04-02T11:22:43.949Z,1262.00
2023-04-02T11:23:42.960Z,740.00
2023-04-02T11:24:42.984Z,851.00
2023-04-02T11:25:42.973Z,945.00
2023-04-02T11:26:43.070Z,607.00
2023-04-02T11:27:42.966Z,602.00
2023-04-02T11:28:42.928Z,592.00
2023-04-02T11:29:42.975Z,772.00
2023-04-02T11:30:42.925Z,908.00
2023-04-02T11:31:42.953Z,641.00
2023-04-02T11:32:43.082Z,652.00
2023-04-02T11:33:45.490Z,755.00
2023-04-02T11:34:42.907Z,755.00
2023-04-02T11:35:42.954Z,651.00
2023-04-02T11:36:42.898Z,628.00
2023-04-02T11:37:42.917Z,837.00
2023-04-02T11:38:42.926Z,904.00
2023-04-02T11:39:42.877Z,659.00
2023-04-02T11:40:42.882Z,578.00
2023-04-02T11:41:42.889Z,760.00
2023-04-02T11:42:42.831Z,665.00
2023-04-02T11:43:42.864Z,648.00
2023-04-02T11:44:42.919Z,830.00
2023-04-02T11:45:52.055Z,913.00
2023-04-02T11:46:43.856Z,787.00
2023-04-02T11:47:42.844Z,889.00
2023-04-02T11:48:42.821Z,968.00
2023-04-02T11:49:42.826Z,662.00
2023-04-02T11:50:42.775Z,671.00
2023-04-02T11:51:42.794Z,579.00
2023-04-02T11:52:42.773Z,655.00
2023-04-02T11:53:42.762Z,917.00
2023-04-02T11:54:42.758Z,876.00
2023-04-02T11:55:42.817Z,858.00
2023-04-02T11:56:42.727Z,828.00
2023-04-02T11:57:42.818Z,922.00
2023-04-02T11:58:42.749Z,836.00
2023-04-02T11:59:42.745Z,817.00
2023-04-02T12:00:42.702Z,670.00
2023-04-02T12:01:42.748Z,534.00
2023-04-02T12:02:42.906Z,528.00
2023-04-02T12:03:42.776Z,477.00
2023-04-02T12:04:42.896Z,561.00
2023-04-02T12:05:42.886Z,684.00
2023-04-02T12:06:42.836Z,640.00
2023-04-02T12:07:42.874Z,453.00
2023-04-02T12:08:54.683Z,445.00
2023-04-02T12:09:43.952Z,445.00
2023-04-02T12:10:42.942Z,400.00
2023-04-02T12:11:42.912Z,400.00
2023-04-02T12:12:42.894Z,400.00